createdAt,value
2022-09-27T00:01:09.545Z,12.30
2022-09-27T00:03:36.509Z,12.30
2022-09-27T00:06:11.486Z,12.30
2022-09-27T00:08:41.032Z,12.30
2022-09-27T00:11:27.996Z,12.30
2022-09-27T00:13:58.995Z,12.30
2022-09-27T00:16:35.295Z,12.30
2022-09-27T00:19:05.268Z,12.30
2022-09-27T00:21:32.431Z,12.30
2022-09-27T00:23:59.582Z,12.30
2022-09-27T00:26:26.606Z,12.30
2022-09-27T00:28:54.079Z,12.30
2022-09-27T00:31:24.161Z,12.30
2022-09-27T00:33:53.368Z,12.30
2022-09-27T00:36:21.909Z,12.30
2022-09-27T00:38:49.219Z,12.30
2022-09-27T00:41:21.619Z,12.30
2022-09-27T00:43:51.168Z,12.20
2022-09-27T00:46:34.289Z,12.20
2022-09-27T00:49:23.183Z,12.20
2022-09-27T00:51:56.096Z,12.20
2022-09-27T00:54:26.613Z,12.20
2022-09-27T00:56:59.066Z,12.20
2022-09-27T00:59:51.174Z,12.20
2022-09-27T01:02:18.687Z,12.20
2022-09-27T01:04:53.465Z,12.20
2022-09-27T01:07:20.285Z,12.20
2022-09-27T01:09:47.572Z,12.20
2022-09-27T01:12:29.363Z,12.10
2022-09-27T01:15:24.497Z,12.10
2022-09-27T01:18:17.674Z,12.10
2022-09-27T01:20:49.995Z,12.10
2022-09-27T01:23:39.224Z,12.10
2022-09-27T01:26:43.576Z,12.10
2022-09-27T01:29:29.325Z,12.10
2022-09-27T01:32:23.092Z,12.10
2022-09-27T01:35:02.002Z,12.10
2022-09-27T01:37:50.798Z,12.10
2022-09-27T01:40:32.787Z,12.10
2022-09-27T01:43:13.529Z,12.10
2022-09-27T01:45:47.894Z,12.10
2022-09-27T01:48:24.058Z,12.20
2022-09-27T01:51:14.611Z,12.20
2022-09-27T01:53:45.963Z,12.30
2022-09-27T01:56:22.330Z,12.30
2022-09-27T01:59:02.538Z,12.40
2022-09-27T02:01:35.946Z,12.40
2022-09-27T02:04:09.608Z,12.40
2022-09-27T02:06:43.779Z,12.50
2022-09-27T02:09:17.988Z,12.50
2022-09-27T02:11:56.435Z,12.50
2022-09-27T02:14:54.488Z,12.50
2022-09-27T02:17:46.113Z,12.50
2022-09-27T02:20:26.122Z,12.50
2022-09-27T02:22:59.391Z,12.60
2022-09-27T02:25:38.197Z,12.60
2022-09-27T02:28:47.644Z,12.60
2022-09-27T02:31:16.988Z,12.70
2022-09-27T02:33:55.365Z,12.70
2022-09-27T02:36:22.756Z,12.70
2022-09-27T02:38:51.988Z,12.80
2022-09-27T02:41:21.523Z,12.80
2022-09-27T02:43:53.387Z,12.80
2022-09-27T02:46:29.916Z,12.80
2022-09-27T02:49:44.164Z,12.80
2022-09-27T02:52:27.004Z,12.80
2022-09-27T02:55:21.435Z,12.90
2022-09-27T02:58:19.403Z,12.90
2022-09-27T03:00:59.593Z,12.90
2022-09-27T03:04:04.334Z,12.90
2022-09-27T03:06:38.359Z,12.90
2022-09-27T03:09:05.295Z,12.90
2022-09-27T03:11:33.440Z,12.90
2022-09-27T03:14:08.958Z,12.90
2022-09-27T03:16:36.298Z,12.90
2022-09-27T03:19:03.304Z,12.90
2022-09-27T03:21:30.055Z,12.90
2022-09-27T03:23:59.231Z,12.90
2022-09-27T03:26:28.251Z,12.90
2022-09-27T03:28:55.241Z,12.90
2022-09-27T03:31:27.095Z,12.90
2022-09-27T03:33:54.031Z,12.90
2022-09-27T03:36:23.139Z,12.90
2022-09-27T03:38:50.116Z,12.90
2022-09-27T03:41:19.071Z,12.80
2022-09-27T03:43:45.861Z,12.80
2022-09-27T03:46:12.745Z,12.80
2022-09-27T03:48:39.680Z,12.80
2022-09-27T03:51:09.592Z,12.80
2022-09-27T03:53:36.596Z,12.80
2022-09-27T03:56:06.213Z,12.80
2022-09-27T03:58:32.968Z,12.80
2022-09-27T04:01:02.356Z,12.80
2022-09-27T04:03:29.362Z,12.80
2022-09-27T04:05:56.256Z,12.80
2022-09-27T04:08:23.139Z,12.80
2022-09-27T04:10:52.023Z,12.70
2022-09-27T04:13:18.812Z,12.70
2022-09-27T04:15:49.831Z,12.70
2022-09-27T04:18:18.706Z,12.60
2022-09-27T04:20:45.500Z,12.60
2022-09-27T04:23:18.055Z,12.50
2022-09-27T04:25:44.863Z,12.50
2022-09-27T04:28:12.157Z,12.50
2022-09-27T04:30:39.282Z,12.50
2022-09-27T04:33:06.058Z,12.50
2022-09-27T04:35:53.954Z,12.50
2022-09-27T04:38:23.942Z,12.50
2022-09-27T04:40:53.362Z,12.50
2022-09-27T04:43:20.258Z,12.40
2022-09-27T04:45:47.124Z,12.40
2022-09-27T04:48:18.570Z,12.40
2022-09-27T04:50:45.338Z,12.40
2022-09-27T04:53:17.754Z,12.40
2022-09-27T04:55:48.980Z,12.30
2022-09-27T04:58:16.173Z,12.30
2022-09-27T05:00:43.246Z,12.30
2022-09-27T05:03:12.581Z,12.10
2022-09-27T05:05:39.434Z,12.10
2022-09-27T05:08:06.184Z,12.10
2022-09-27T05:10:33.536Z,12.10
2022-09-27T05:13:04.998Z,12.10
2022-09-27T05:15:31.886Z,12.10
2022-09-27T05:17:59.191Z,12.10
2022-09-27T05:20:26.048Z,12.10
2022-09-27T05:22:53.025Z,12.10
2022-09-27T05:25:19.893Z,12.10
2022-09-27T05:27:47.214Z,12.20
2022-09-27T05:30:14.108Z,12.10
2022-09-27T05:32:44.667Z,12.10
2022-09-27T05:35:17.710Z,12.00
2022-09-27T05:37:50.811Z,12.00
2022-09-27T05:42:50.405Z,11.90
2022-09-27T05:45:18.059Z,11.90
2022-09-27T05:47:52.368Z,11.80
2022-09-27T05:50:21.537Z,11.90
2022-09-27T05:52:49.256Z,12.00
2022-09-27T05:55:16.375Z,12.00
2022-09-27T05:57:43.462Z,12.10
2022-09-27T06:00:10.591Z,12.20
2022-09-27T06:02:37.498Z,12.30
2022-09-27T06:05:04.810Z,12.30
2022-09-27T06:07:38.600Z,12.30
2022-09-27T06:10:08.164Z,12.30
2022-09-27T06:12:37.016Z,12.20
2022-09-27T06:15:06.724Z,12.20
2022-09-27T06:17:37.431Z,12.20
2022-09-27T06:20:04.893Z,12.20
2022-09-27T06:22:33.780Z,12.30
2022-09-27T06:25:00.806Z,12.20
2022-09-27T06:27:27.787Z,12.20
2022-09-27T06:29:55.987Z,12.30
2022-09-27T06:32:22.941Z,12.20
2022-09-27T06:34:52.385Z,12.30
2022-09-27T06:37:19.213Z,12.30
2022-09-27T06:39:49.298Z,12.30
2022-09-27T06:42:18.651Z,12.30
2022-09-27T06:44:50.223Z,12.40
2022-09-27T06:47:17.901Z,12.50
2022-09-27T06:49:44.989Z,12.50
2022-09-27T06:52:11.835Z,12.50
2022-09-27T06:54:38.671Z,12.50
2022-09-27T06:57:05.992Z,12.50
2022-09-27T06:59:51.408Z,12.50
2022-09-27T07:02:18.905Z,12.50
2022-09-27T07:04:45.854Z,12.50
2022-09-27T07:07:15.052Z,12.60
2022-09-27T07:09:42.910Z,12.60
2022-09-27T07:12:13.382Z,12.70
2022-09-27T07:14:40.285Z,12.70
2022-09-27T07:17:07.250Z,12.90
2022-09-27T07:19:34.376Z,12.90
2022-09-27T07:22:01.216Z,13.00
2022-09-27T07:24:28.066Z,13.00
2022-09-27T07:26:54.960Z,13.10
2022-09-27T07:29:21.800Z,13.20
2022-09-27T07:31:48.687Z,13.30
2022-09-27T07:34:18.204Z,13.20
2022-09-27T07:36:45.142Z,13.20
2022-09-27T07:39:12.026Z,13.20
2022-09-27T07:41:40.420Z,13.20
2022-09-27T07:44:08.388Z,13.20
2022-09-27T07:46:37.495Z,13.20
2022-09-27T07:49:06.802Z,13.20
2022-09-27T07:51:34.074Z,13.20
2022-09-27T07:54:08.506Z,13.20
2022-09-27T07:56:35.805Z,13.10
2022-09-27T07:59:02.706Z,13.00
2022-09-27T08:01:29.589Z,13.10
2022-09-27T08:03:58.604Z,13.10
2022-09-27T08:06:25.396Z,13.30
2022-09-27T08:08:52.207Z,13.40
2022-09-27T08:11:19.294Z,13.30
2022-09-27T08:13:46.586Z,13.20
2022-09-27T08:16:18.314Z,13.30
2022-09-27T08:18:45.200Z,13.30
2022-09-27T08:21:12.082Z,13.30
2022-09-27T08:23:38.884Z,13.20
2022-09-27T08:26:05.859Z,13.10
2022-09-27T08:28:32.700Z,13.20
2022-09-27T08:31:01.826Z,13.30
2022-09-27T08:33:33.519Z,13.30
2022-09-27T08:36:04.188Z,13.30
2022-09-27T08:38:31.070Z,13.20
2022-09-27T08:41:12.674Z,13.20
2022-09-27T08:44:02.703Z,13.20
2022-09-27T08:46:47.963Z,13.20
2022-09-27T08:49:23.757Z,13.10
2022-09-27T08:51:53.884Z,13.30
2022-09-27T08:54:25.451Z,13.30
2022-09-27T08:56:55.095Z,13.40
2022-09-27T08:59:27.389Z,13.40
2022-09-27T09:01:54.963Z,13.40
2022-09-27T09:04:51.146Z,13.40
2022-09-27T09:07:23.133Z,13.50
2022-09-27T09:10:46.107Z,13.50
2022-09-27T09:13:24.841Z,13.50
2022-09-27T09:16:16.168Z,13.60
2022-09-27T09:19:28.043Z,13.80
2022-09-27T09:22:04.192Z,13.90
2022-09-27T09:24:52.463Z,14.00
2022-09-27T09:27:31.099Z,14.00
2022-09-27T09:30:19.739Z,13.80
2022-09-27T09:33:01.854Z,13.80
2022-09-27T09:35:41.537Z,13.90
2022-09-27T09:38:44.153Z,14.00
2022-09-27T09:41:23.979Z,14.10
2022-09-27T09:44:01.097Z,14.20
2022-09-27T09:46:41.099Z,14.20
2022-09-27T09:49:19.647Z,14.30
2022-09-27T09:51:52.722Z,14.40
2022-09-27T09:54:46.575Z,14.40
2022-09-27T09:57:35.863Z,14.40
2022-09-27T10:00:17.994Z,14.20
2022-09-27T10:02:46.707Z,14.10
2022-09-27T10:05:25.285Z,14.10
2022-09-27T10:07:56.384Z,14.00
2022-09-27T10:10:23.520Z,14.00
2022-09-27T10:12:53.231Z,14.10
2022-09-27T10:15:23.760Z,14.30
2022-09-27T10:17:56.462Z,14.80
2022-09-27T10:20:43.928Z,15.10
2022-09-27T10:23:15.913Z,15.20
2022-09-27T10:25:57.825Z,15.20
2022-09-27T10:28:44.708Z,15.30
2022-09-27T10:31:21.620Z,15.40
2022-09-27T10:33:59.665Z,15.40
2022-09-27T10:36:32.104Z,15.40
2022-09-27T10:39:06.614Z,15.30
2022-09-27T10:41:44.472Z,15.40
2022-09-27T10:44:20.144Z,15.50
2022-09-27T10:46:50.535Z,15.60
2022-09-27T10:49:31.656Z,15.80
2022-09-27T10:52:06.777Z,16.00
2022-09-27T10:54:39.743Z,16.30
2022-09-27T10:57:16.151Z,16.30
2022-09-27T10:59:46.967Z,16.70
2022-09-27T11:02:24.546Z,17.70
2022-09-27T11:05:31.573Z,18.20
2022-09-27T11:08:23.195Z,18.10
2022-09-27T11:11:15.908Z,17.50
2022-09-27T11:13:57.450Z,17.10
2022-09-27T11:16:37.135Z,16.60
2022-09-27T11:19:41.282Z,16.20
2022-09-27T11:22:55.162Z,15.90
2022-09-27T11:25:44.692Z,15.10
2022-09-27T11:28:50.804Z,14.80
2022-09-27T11:31:57.701Z,14.60
2022-09-27T11:34:36.602Z,14.50
2022-09-27T11:37:24.513Z,14.50
2022-09-27T11:39:54.352Z,14.40
2022-09-27T11:42:39.417Z,14.30
2022-09-27T11:45:34.309Z,14.40
2022-09-27T11:48:16.968Z,14.20
2022-09-27T11:51:31.423Z,14.20
2022-09-27T11:54:22.717Z,13.90
2022-09-27T11:57:18.744Z,13.40
2022-09-27T12:00:24.959Z,12.10
2022-09-27T12:03:15.332Z,11.70
2022-09-27T12:05:58.094Z,11.10
2022-09-27T12:08:44.234Z,10.90
2022-09-27T12:11:28.218Z,10.80
2022-09-27T12:14:02.547Z,10.60
2022-09-27T12:16:31.733Z,10.50
2022-09-27T12:19:01.192Z,10.50
2022-09-27T12:21:33.413Z,10.50
2022-09-27T12:24:01.580Z,10.60
2022-09-27T12:26:43.964Z,10.60
2022-09-27T12:29:34.144Z,10.70
2022-09-27T12:32:20.600Z,10.80
2022-09-27T12:34:50.226Z,11.20
2022-09-27T12:37:25.363Z,11.50
2022-09-27T12:40:06.496Z,11.80
2022-09-27T12:42:50.323Z,12.70
2022-09-27T12:45:21.658Z,12.90
2022-09-27T12:47:59.929Z,13.10
2022-09-27T12:50:44.916Z,13.30
2022-09-27T12:54:05.868Z,14.00
2022-09-27T12:56:53.555Z,14.70
2022-09-27T12:59:34.390Z,14.50
2022-09-27T13:02:24.153Z,14.70
2022-09-27T13:04:56.799Z,17.20
2022-09-27T13:07:42.890Z,16.20
2022-09-27T13:10:27.069Z,15.30
2022-09-27T13:12:58.122Z,17.30
2022-09-27T13:15:35.102Z,18.20
2022-09-27T13:18:08.119Z,16.70
2022-09-27T13:20:34.858Z,15.80
2022-09-27T13:23:22.698Z,15.20
2022-09-27T13:25:56.723Z,14.80
2022-09-27T13:28:32.199Z,14.40
2022-09-27T13:31:08.234Z,14.20
2022-09-27T13:33:53.635Z,15.70
2022-09-27T13:36:33.609Z,15.60
2022-09-27T13:39:17.648Z,15.30
2022-09-27T13:41:50.365Z,14.90
2022-09-27T13:44:29.488Z,14.10
2022-09-27T13:47:06.683Z,13.70
2022-09-27T13:50:13.626Z,13.40
2022-09-27T13:52:46.533Z,13.10
2022-09-27T13:55:45.892Z,13.20
2022-09-27T13:58:30.248Z,13.40
2022-09-27T14:01:03.491Z,13.40
2022-09-27T14:03:33.112Z,13.70
2022-09-27T14:06:08.782Z,13.60
2022-09-27T14:08:44.649Z,13.80
2022-09-27T14:11:15.530Z,14.50
2022-09-27T14:13:44.868Z,14.90
2022-09-27T14:16:16.033Z,14.40
2022-09-27T14:18:55.166Z,14.60
2022-09-27T14:21:36.945Z,14.40
2022-09-27T14:24:28.546Z,14.10
2022-09-27T14:27:34.516Z,14.00
2022-09-27T14:30:23.314Z,13.90
2022-09-27T14:33:01.883Z,18.40
2022-09-27T14:35:49.909Z,21.50
2022-09-27T14:38:37.149Z,23.60
2022-09-27T14:41:08.006Z,22.70
2022-09-27T14:43:36.780Z,20.20
2022-09-27T14:46:07.533Z,19.70
2022-09-27T14:48:35.850Z,18.20
2022-09-27T14:51:14.459Z,16.90
2022-09-27T14:53:48.138Z,15.80
2022-09-27T14:56:22.724Z,15.20
2022-09-27T14:59:07.494Z,14.70
2022-09-27T15:01:35.178Z,14.60
2022-09-27T15:04:10.964Z,14.50
2022-09-27T15:06:38.742Z,14.40
2022-09-27T15:09:07.276Z,14.00
2022-09-27T15:11:36.923Z,13.90
2022-09-27T15:14:11.700Z,13.60
2022-09-27T15:16:39.047Z,13.50
2022-09-27T15:19:29.383Z,13.50
2022-09-27T15:21:59.673Z,13.70
2022-09-27T15:24:47.391Z,13.60
2022-09-27T15:27:25.531Z,13.60
2022-09-27T15:29:55.622Z,13.50
2022-09-27T15:32:24.970Z,13.50
2022-09-27T15:34:52.423Z,13.40
2022-09-27T15:37:33.635Z,13.40
2022-09-27T15:40:20.727Z,13.30
2022-09-27T15:42:59.364Z,13.30
2022-09-27T15:45:30.385Z,13.30
2022-09-27T15:48:11.112Z,13.30
2022-09-27T15:50:38.598Z,13.10
2022-09-27T15:53:06.951Z,13.00
2022-09-27T15:55:43.053Z,12.90
2022-09-27T15:58:24.259Z,12.80
2022-09-27T16:01:05.729Z,12.70
2022-09-27T16:03:37.751Z,12.50
2022-09-27T16:06:04.779Z,12.40
2022-09-27T16:08:34.673Z,12.30
2022-09-27T16:11:05.527Z,12.20
2022-09-27T16:13:33.309Z,11.90
2022-09-27T16:16:02.089Z,11.80
2022-09-27T16:18:30.917Z,11.70
2022-09-27T16:20:58.915Z,11.60
2022-09-27T16:23:25.818Z,11.60
2022-09-27T16:25:53.586Z,11.50
2022-09-27T16:28:20.609Z,11.50
2022-09-27T16:30:48.290Z,11.60
2022-09-27T16:33:15.264Z,11.50
2022-09-27T16:35:42.155Z,11.50
2022-09-27T16:38:09.335Z,11.50
2022-09-27T16:40:37.178Z,11.40
2022-09-27T16:43:07.178Z,11.40
2022-09-27T16:45:37.587Z,11.30
2022-09-27T16:48:04.500Z,11.20
2022-09-27T16:50:52.430Z,11.20
2022-09-27T16:53:22.243Z,11.20
2022-09-27T16:55:49.036Z,11.10
2022-09-27T16:58:15.867Z,11.00
2022-09-27T17:00:43.303Z,10.90
2022-09-27T17:03:10.517Z,10.80
2022-09-27T17:05:37.298Z,10.80
2022-09-27T17:08:06.569Z,10.70
2022-09-27T17:10:35.714Z,10.60
2022-09-27T17:13:02.608Z,10.60
2022-09-27T17:15:29.609Z,10.60
2022-09-27T17:17:56.381Z,10.60
2022-09-27T17:20:27.576Z,10.50
2022-09-27T17:22:54.498Z,10.50
2022-09-27T17:25:23.478Z,10.50
2022-09-27T17:27:50.240Z,10.50
2022-09-27T17:30:20.953Z,10.50
2022-09-27T17:32:47.707Z,10.40
2022-09-27T17:35:14.462Z,10.40
2022-09-27T17:37:41.390Z,10.40
2022-09-27T17:40:08.395Z,10.40
2022-09-27T17:42:37.299Z,10.40
2022-09-27T17:45:06.883Z,10.30
2022-09-27T17:47:52.200Z,10.20
2022-09-27T17:50:25.138Z,10.30
2022-09-27T17:52:53.633Z,10.30
2022-09-27T17:55:26.977Z,10.20
2022-09-27T17:57:53.826Z,10.20
2022-09-27T18:00:21.105Z,10.20
2022-09-27T18:02:50.590Z,10.20
2022-09-27T18:05:21.067Z,10.20
2022-09-27T18:07:47.916Z,10.20
2022-09-27T18:10:16.709Z,10.20
2022-09-27T18:12:43.469Z,10.20
2022-09-27T18:15:10.480Z,10.20
2022-09-27T18:17:37.341Z,10.20
2022-09-27T18:20:07.470Z,10.20
2022-09-27T18:22:39.058Z,10.30
2022-09-27T18:25:06.642Z,10.40
2022-09-27T18:27:34.608Z,10.40
2022-09-27T18:30:03.449Z,10.40
2022-09-27T18:32:30.203Z,10.40
2022-09-27T18:34:57.028Z,10.40
2022-09-27T18:37:23.889Z,10.40
2022-09-27T18:39:50.606Z,10.40
2022-09-27T18:42:17.329Z,10.40
2022-09-27T18:44:46.433Z,10.30
2022-09-27T18:47:15.799Z,10.20
2022-09-27T18:49:42.590Z,10.20
2022-09-27T18:52:09.539Z,10.10
2022-09-27T18:54:40.414Z,10.00
2022-09-27T18:57:09.671Z,10.00
2022-09-27T18:59:36.502Z,10.00
2022-09-27T19:02:05.939Z,10.00
2022-09-27T19:04:37.364Z,10.00
2022-09-27T19:07:04.191Z,10.00
2022-09-27T19:09:31.356Z,9.90
2022-09-27T19:11:58.355Z,9.90
2022-09-27T19:14:25.414Z,9.80
2022-09-27T19:16:52.179Z,9.90
2022-09-27T19:19:20.084Z,9.80
2022-09-27T19:21:50.015Z,9.80
2022-09-27T19:24:19.525Z,9.70
2022-09-27T19:26:49.975Z,9.70
2022-09-27T19:29:17.032Z,9.70
2022-09-27T19:31:46.365Z,9.60
2022-09-27T19:34:15.502Z,9.70
2022-09-27T19:36:42.267Z,9.60
2022-09-27T19:39:09.154Z,9.60
2022-09-27T19:41:36.055Z,9.60
2022-09-27T19:44:03.073Z,9.50
2022-09-27T19:46:29.878Z,9.50
2022-09-27T19:48:58.862Z,9.40
2022-09-27T19:51:31.156Z,9.50
2022-09-27T19:53:57.946Z,9.50
2022-09-27T19:56:25.430Z,9.60
2022-09-27T19:58:52.558Z,9.50
2022-09-27T20:01:24.476Z,9.50
2022-09-27T20:03:53.403Z,9.50
2022-09-27T20:06:21.576Z,9.50
2022-09-27T20:08:48.820Z,9.50
2022-09-27T20:11:23.507Z,9.40
2022-09-27T20:13:55.004Z,9.40
2022-09-27T20:16:24.271Z,9.30
2022-09-27T20:18:53.693Z,9.40
2022-09-27T20:21:22.407Z,9.40
2022-09-27T20:23:51.589Z,9.40
2022-09-27T20:26:20.386Z,9.40
2022-09-27T20:28:49.912Z,9.30
2022-09-27T20:31:22.859Z,9.20
2022-09-27T20:33:52.513Z,9.10
2022-09-27T20:36:28.337Z,9.00
2022-09-27T20:39:12.191Z,9.10
2022-09-27T20:41:43.931Z,9.10
2022-09-27T20:44:16.420Z,9.10
2022-09-27T20:46:44.333Z,9.00
2022-09-27T20:49:18.686Z,9.00
2022-09-27T20:51:51.275Z,9.00
2022-09-27T20:54:18.488Z,9.10
2022-09-27T20:56:48.922Z,9.20
2022-09-27T20:59:18.734Z,9.20
2022-09-27T21:01:47.465Z,9.30
2022-09-27T21:04:16.859Z,9.30
2022-09-27T21:06:46.543Z,9.40
2022-09-27T21:09:19.755Z,9.40
2022-09-27T21:11:48.417Z,9.40
2022-09-27T21:14:15.720Z,9.40
2022-09-27T21:16:42.663Z,9.40
2022-09-27T21:19:09.882Z,9.30
2022-09-27T21:21:38.802Z,9.30
2022-09-27T21:24:05.720Z,9.20
2022-09-27T21:26:35.986Z,9.20
2022-09-27T21:29:08.478Z,9.30
2022-09-27T21:31:38.690Z,9.30
2022-09-27T21:34:06.002Z,9.40
2022-09-27T21:36:35.050Z,9.50
2022-09-27T21:39:02.259Z,9.50
2022-09-27T21:41:29.317Z,9.50
2022-09-27T21:43:57.404Z,9.50
2022-09-27T21:46:27.626Z,9.60
2022-09-27T21:49:01.816Z,9.60
2022-09-27T21:51:34.190Z,9.60
2022-09-27T21:54:04.836Z,9.60
2022-09-27T21:56:35.807Z,9.60
2022-09-27T21:59:02.632Z,9.50
2022-09-27T22:01:34.418Z,9.50
2022-09-27T22:04:03.925Z,9.50
2022-09-27T22:06:33.250Z,9.60
2022-09-27T22:09:01.371Z,9.50
2022-09-27T22:11:33.271Z,9.50
2022-09-27T22:14:00.808Z,9.40
2022-09-27T22:16:28.694Z,9.40
2022-09-27T22:18:58.732Z,9.30
2022-09-27T22:21:31.351Z,9.20
2022-09-27T22:24:07.477Z,9.10
2022-09-27T22:26:39.064Z,8.90
2022-09-27T22:29:06.880Z,8.80
2022-09-27T22:31:34.073Z,8.90
2022-09-27T22:34:05.444Z,9.00
2022-09-27T22:36:35.793Z,9.10
2022-09-27T22:39:02.604Z,9.10
2022-09-27T22:41:32.132Z,9.10
2022-09-27T22:43:59.002Z,9.00
2022-09-27T22:46:25.919Z,8.90
2022-09-27T22:48:52.883Z,8.80
2022-09-27T22:51:20.555Z,8.60
2022-09-27T22:53:49.824Z,8.60
2022-09-27T22:56:19.193Z,8.50
2022-09-27T22:58:47.702Z,8.40
2022-09-27T23:01:22.919Z,8.30
2022-09-27T23:03:55.739Z,8.30
2022-09-27T23:06:23.269Z,8.30
2022-09-27T23:08:51.404Z,8.30
2022-09-27T23:11:20.144Z,8.40
2022-09-27T23:13:49.067Z,8.40
2022-09-27T23:16:21.262Z,8.50
2022-09-27T23:18:48.235Z,8.50
2022-09-27T23:21:16.037Z,8.60
2022-09-27T23:23:47.630Z,8.70
2022-09-27T23:26:17.900Z,8.90
2022-09-27T23:28:44.943Z,8.90
2022-09-27T23:31:17.144Z,9.00
2022-09-27T23:33:48.836Z,9.10
2022-09-27T23:36:18.741Z,9.20
2022-09-27T23:38:46.994Z,9.20
2022-09-27T23:41:15.362Z,9.30
2022-09-27T23:43:45.730Z,9.30
2022-09-27T23:46:15.431Z,9.30
2022-09-27T23:48:42.615Z,9.40
2022-09-27T23:51:11.473Z,9.40
2022-09-27T23:53:39.601Z,9.40
2022-09-27T23:56:18.595Z,9.40
2022-09-27T23:58:46.288Z,9.40
